createdAt,value
2022-10-19T00:00:02.497Z,0
2022-10-19T00:16:02.903Z,0
2022-10-19T00:31:02.891Z,0
2022-10-19T00:46:03.015Z,0
2022-10-19T01:00:02.922Z,0
2022-10-19T01:16:03.489Z,0
2022-10-19T01:31:04.093Z,0
2022-10-19T01:46:04.272Z,0
2022-10-19T02:00:04.655Z,0
2022-10-19T02:16:04.432Z,0
2022-10-19T02:31:04.526Z,0
2022-10-19T02:46:04.778Z,0
2022-10-19T03:00:00.174Z,0
2022-10-19T03:16:00.380Z,0
2022-10-19T03:31:00.836Z,0
2022-10-19T03:46:00.952Z,0
2022-10-19T04:00:01.174Z,0
2022-10-19T04:16:01.581Z,0
2022-10-19T04:31:01.674Z,0
2022-10-19T04:46:02.106Z,0
2022-10-19T05:00:02.439Z,0
2022-10-19T05:16:02.647Z,0
2022-10-19T05:31:02.519Z,0
2022-10-19T05:46:02.631Z,9
2022-10-19T06:00:02.712Z,17
2022-10-19T06:16:02.821Z,24
2022-10-19T06:31:05.871Z,31
2022-10-19T06:46:03.666Z,36
2022-10-19T07:00:02.871Z,121
2022-10-19T07:16:03.373Z,186
2022-10-19T07:31:03.794Z,222
2022-10-19T07:46:03.947Z,253
2022-10-19T08:00:04.253Z,284
2022-10-19T08:16:02.263Z,315
2022-10-19T08:31:02.754Z,349
2022-10-19T08:46:04.722Z,384
2022-10-19T09:00:01.747Z,410
2022-10-19T09:16:04.510Z,432
2022-10-19T09:31:01.855Z,455
2022-10-19T09:46:11.594Z,472
2022-10-19T10:00:01.312Z,489
2022-10-19T10:16:03.552Z,500
2022-10-19T10:31:04.903Z,507
2022-10-19T10:46:13.225Z,511
2022-10-19T11:00:04.736Z,512
2022-10-19T11:16:01.747Z,508
2022-10-19T11:31:04.095Z,500
2022-10-19T11:46:01.957Z,493
2022-10-19T12:00:13.917Z,483
2022-10-19T12:16:01.167Z,469
2022-10-19T12:31:03.627Z,453
2022-10-19T12:46:01.057Z,436
2022-10-19T13:00:03.125Z,415
2022-10-19T13:16:00.865Z,390
2022-10-19T13:31:07.137Z,362
2022-10-19T13:46:00.763Z,330
2022-10-19T14:00:03.330Z,302
2022-10-19T14:16:00.515Z,261
2022-10-19T14:31:04.615Z,214
2022-10-19T14:46:00.360Z,136
2022-10-19T15:00:02.578Z,91
2022-10-19T15:16:00.232Z,51
2022-10-19T15:31:02.939Z,28
2022-10-19T15:46:00.293Z,17
2022-10-19T16:00:02.341Z,11
2022-10-19T16:16:10.524Z,3
2022-10-19T16:31:02.152Z,0
2022-10-19T16:46:04.674Z,0
2022-10-19T17:00:01.726Z,0
2022-10-19T17:16:04.576Z,0
2022-10-19T17:31:01.931Z,0
2022-10-19T17:46:04.447Z,0
2022-10-19T18:00:01.576Z,0
2022-10-19T18:16:04.171Z,0
2022-10-19T18:31:01.483Z,0
2022-10-19T18:46:04.190Z,0
2022-10-19T19:00:01.090Z,0
2022-10-19T19:16:04.095Z,0
2022-10-19T19:31:01.207Z,0
2022-10-19T19:46:06.369Z,0
2022-10-19T20:00:06.038Z,0
2022-10-19T20:16:03.826Z,0
2022-10-19T20:31:05.979Z,0
2022-10-19T20:46:03.263Z,0
2022-10-19T21:00:05.610Z,0
2022-10-19T21:16:03.305Z,0
2022-10-19T21:31:05.668Z,0
2022-10-19T21:46:02.909Z,0
2022-10-19T22:00:05.138Z,0
2022-10-19T22:16:02.748Z,0
2022-10-19T22:31:05.252Z,0
2022-10-19T22:46:02.703Z,0
2022-10-19T23:00:04.904Z,0
2022-10-19T23:16:02.859Z,0
2022-10-19T23:31:05.049Z,0
2022-10-19T23:46:02.505Z,0
